Time;durP1;ratioP1;P1;durP2;ratioP2;P2;SDS_P1;SDS_P2;PMS_P1;PMS_P2;Temp;Humidity;BMP_temperature;BMP_pressure;BME280_temperature;BME280_humidity;BME280_pressure;Samples;Min_cycle;Max_cycle;Signal;HPM_P1;HPM_P2
2021/09/26 00:00:48;;;;;;;9.80;7.40;;;15.50;99.90;;;;;;4995189;28;20166;-86
2021/09/26 00:03:13;;;;;;;10.80;8.10;;;15.50;99.90;;;;;;4995355;28;20409;-86
2021/09/26 00:05:39;;;;;;;9.87;7.50;;;15.50;99.90;;;;;;4977762;28;20263;-85
2021/09/26 00:08:05;;;;;;;8.40;7.07;;;15.40;99.90;;;;;;4995249;28;20209;-86
2021/09/26 00:10:33;;;;;;;8.40;7.30;;;15.50;99.90;;;;;;4995579;28;20180;-83
2021/09/26 00:12:59;;;;;;;10.73;7.00;;;15.40;99.90;;;;;;4977996;28;20176;-83
2021/09/26 00:15:25;;;;;;;8.63;7.10;;;15.40;99.90;;;;;;4995422;28;20423;-86
2021/09/26 00:17:51;;;;;;;8.30;6.77;;;15.20;99.90;;;;;;4995010;28;20577;-88
2021/09/26 00:20:18;;;;;;;8.53;7.20;;;15.10;99.90;;;;;;4995086;28;20420;-84
2021/09/26 00:22:44;;;;;;;7.53;6.83;;;15.10;99.90;;;;;;4977931;28;20427;-86
2021/09/26 00:25:12;;;;;;;8.10;5.87;;;14.90;99.90;;;;;;4995028;28;20427;-85
2021/09/26 00:27:40;;;;;;;8.93;7.30;;;14.90;99.90;;;;;;4995137;28;20551;-85
2021/09/26 00:30:08;;;;;;;6.43;5.83;;;14.80;99.90;;;;;;4995387;28;20944;-87
2021/09/26 00:32:37;;;;;;;12.57;7.73;;;14.80;99.90;;;;;;4994626;28;20924;-86
2021/09/26 00:35:04;;;;;;;7.00;6.30;;;14.90;99.90;;;;;;4994990;28;20415;-83
2021/09/26 00:37:29;;;;;;;7.90;7.10;;;14.90;99.90;;;;;;4995088;28;20454;-87
2021/09/26 00:39:55;;;;;;;10.53;6.40;;;15.00;99.90;;;;;;4995124;28;20400;-83
2021/09/26 00:42:21;;;;;;;7.60;6.70;;;15.00;99.90;;;;;;4995078;28;20178;-86
2021/09/26 00:44:47;;;;;;;8.03;5.33;;;15.00;99.90;;;;;;4994960;28;20173;-88
2021/09/26 00:47:12;;;;;;;6.90;6.27;;;15.10;99.90;;;;;;4994525;28;20219;-83
2021/09/26 00:49:38;;;;;;;8.70;6.13;;;15.00;99.90;;;;;;4994439;28;20178;-87
2021/09/26 00:52:03;;;;;;;9.70;7.10;;;15.10;99.90;;;;;;4994629;28;20216;-84
2021/09/26 00:54:29;;;;;;;13.40;7.40;;;15.10;99.90;;;;;;4994513;28;20181;-85
2021/09/26 00:56:57;;;;;;;7.30;6.17;;;15.20;99.90;;;;;;4994617;28;20622;-83
2021/09/26 00:59:22;;;;;;;7.83;5.33;;;15.20;99.90;;;;;;4994502;28;20173;-84
2021/09/26 01:01:49;;;;;;;10.63;7.27;;;15.20;99.90;;;;;;4994024;28;20432;-87
2021/09/26 01:04:19;;;;;;;8.67;7.90;;;15.20;99.90;;;;;;4994461;28;20178;-83
2021/09/26 01:06:50;;;;;;;9.40;7.50;;;15.30;99.90;;;;;;4994612;28;20408;-82
2021/09/26 01:09:40;;;;;;;9.10;6.10;;;15.30;99.90;;;;;;4994346;28;20428;-84
2021/09/26 01:12:14;;;;;;;6.53;5.83;;;15.30;99.90;;;;;;4994191;28;20763;-83
2021/09/26 01:15:03;;;;;;;7.60;4.90;;;15.20;99.90;;;;;;4993898;28;20419;-85
2021/09/26 01:18:01;;;;;;;5.17;4.63;;;15.20;99.90;;;;;;4993681;28;20420;-83
2021/09/26 01:20:48;;;;;;;6.80;5.00;;;15.30;99.90;;;;;;4994111;28;20408;-85
2021/09/26 01:23:40;;;;;;;5.23;4.73;;;15.30;99.90;;;;;;4994094;28;20544;-83
2021/09/26 01:26:42;;;;;;;6.57;5.30;;;15.20;99.90;;;;;;4993606;28;20452;-81
2021/09/26 01:29:33;;;;;;;4.97;4.23;;;15.30;99.90;;;;;;4993789;28;20474;-82
2021/09/26 01:32:02;;;;;;;5.83;4.57;;;15.20;99.90;;;;;;4993443;28;20429;-83
2021/09/26 01:34:38;;;;;;;7.43;5.03;;;15.30;99.90;;;;;;4993707;28;20423;-81
2021/09/26 01:37:16;;;;;;;6.80;4.93;;;15.30;99.90;;;;;;4993688;28;20420;-81
2021/09/26 01:39:49;;;;;;;5.13;4.40;;;15.30;99.90;;;;;;4993741;28;20754;-87
2021/09/26 01:42:35;;;;;;;5.60;4.33;;;15.20;99.90;;;;;;4993977;28;20440;-85
2021/09/26 01:45:16;;;;;;;5.80;5.23;;;15.20;99.90;;;;;;4993894;28;20746;-86
2021/09/26 01:47:47;;;;;;;6.50;4.43;;;15.10;99.90;;;;;;4993411;28;20503;-88
2021/09/26 01:50:14;;;;;;;5.30;4.80;;;15.10;99.90;;;;;;4993953;28;20451;-82
2021/09/26 01:52:44;;;;;;;6.40;4.73;;;15.10;99.90;;;;;;4994106;28;20422;-89
2021/09/26 01:55:11;;;;;;;6.20;4.87;;;15.10;99.90;;;;;;4993932;28;20461;-81
2021/09/26 01:57:40;;;;;;;5.50;4.70;;;15.10;99.90;;;;;;4995490;28;20857;-82
2021/09/26 02:00:09;;;;;;;5.17;4.70;;;15.20;99.90;;;;;;4997498;28;20417;-82
2021/09/26 02:02:35;;;;;;;6.00;4.50;;;15.20;99.90;;;;;;4997232;28;20427;-81
2021/09/26 02:05:03;;;;;;;5.87;4.30;;;15.30;99.90;;;;;;4997443;28;20873;-82
2021/09/26 02:07:48;;;;;;;5.70;4.47;;;15.30;99.90;;;;;;4997326;28;20460;-82
2021/09/26 02:10:18;;;;;;;5.63;4.67;;;15.20;99.90;;;;;;4997320;28;20409;-83
2021/09/26 02:12:44;;;;;;;4.57;3.87;;;15.20;99.90;;;;;;4979876;28;20437;-81
2021/09/26 02:15:19;;;;;;;6.43;3.50;;;15.20;99.90;;;;;;4997261;28;20750;-80
2021/09/26 02:17:46;;;;;;;4.83;4.43;;;15.20;99.90;;;;;;4996866;28;20181;-81
2021/09/26 02:20:16;;;;;;;6.00;4.13;;;15.20;99.90;;;;;;4997116;28;20455;-81
2021/09/26 02:22:43;;;;;;;6.80;4.67;;;15.20;99.90;;;;;;4996987;28;20444;-81
2021/09/26 02:25:09;;;;;;;4.80;4.10;;;15.20;99.90;;;;;;4996839;28;20509;-82
2021/09/26 02:27:36;;;;;;;4.93;4.43;;;15.20;99.90;;;;;;4996127;28;20476;-81
2021/09/26 02:30:05;;;;;;;5.57;3.67;;;15.30;99.90;;;;;;4996999;28;20416;-81
2021/09/26 02:32:31;;;;;;;7.77;4.53;;;15.30;99.90;;;;;;4996478;28;20424;-82
2021/09/26 02:34:56;;;;;;;6.30;4.80;;;15.30;99.90;;;;;;4996937;28;20424;-81
2021/09/26 02:37:22;;;;;;;5.37;4.87;;;15.30;99.90;;;;;;4996966;28;20182;-82
2021/09/26 02:39:49;;;;;;;9.30;5.23;;;15.40;99.90;;;;;;4996880;28;20663;-82
2021/09/26 02:42:46;;;;;;;5.33;4.57;;;15.40;99.90;;;;;;4996667;28;20470;-81
2021/09/26 02:45:44;;;;;;;5.30;4.03;;;15.30;99.90;;;;;;4979092;28;20502;-82
2021/09/26 02:48:25;;;;;;;5.97;4.50;;;15.30;99.90;;;;;;4996130;28;20836;-82
2021/09/26 02:50:51;;;;;;;5.83;4.57;;;15.30;99.90;;;;;;4996580;28;20408;-82
2021/09/26 02:53:18;;;;;;;10.03;6.20;;;15.30;99.90;;;;;;4996624;28;20499;-84
2021/09/26 02:55:46;;;;;;;7.13;6.30;;;15.40;99.90;;;;;;4996863;28;20691;-82
2021/09/26 02:58:12;;;;;;;7.30;6.50;;;15.40;99.90;;;;;;4997159;28;20428;-86
2021/09/26 03:00:40;;;;;;;7.97;5.80;;;15.40;99.90;;;;;;4998340;28;20429;-85
2021/09/26 03:03:12;;;;;;;7.53;6.60;;;15.40;99.90;;;;;;4997066;28;20510;-84
2021/09/26 03:05:40;;;;;;;10.27;6.50;;;15.40;99.90;;;;;;4997910;28;20405;-90
2021/09/26 03:08:06;;;;;;;5.80;4.90;;;15.40;99.90;;;;;;4997357;28;20897;-89
2021/09/26 03:10:32;;;;;;;8.80;5.53;;;15.40;99.90;;;;;;4997925;28;20412;-90
2021/09/26 03:13:00;;;;;;;7.73;5.20;;;15.40;99.90;;;;;;4998234;28;20409;-87
2021/09/26 03:15:26;;;;;;;7.17;6.00;;;15.40;99.90;;;;;;4997183;28;20425;-84
2021/09/26 03:17:52;;;;;;;6.27;5.63;;;15.40;99.90;;;;;;4999207;28;20412;-87
2021/09/26 03:20:18;;;;;;;8.17;6.20;;;15.40;99.90;;;;;;4985606;28;20450;-86
2021/09/26 03:22:43;;;;;;;7.23;5.80;;;15.40;99.90;;;;;;5004340;28;20260;-84
2021/09/26 03:25:09;;;;;;;5.80;5.20;;;15.40;99.90;;;;;;5003286;28;20178;-86
2021/09/26 03:27:35;;;;;;;5.87;4.80;;;15.40;99.90;;;;;;5003295;28;20286;-84
2021/09/26 03:30:01;;;;;;;6.60;4.87;;;15.30;99.90;;;;;;5000941;28;20493;-83
2021/09/26 03:32:29;;;;;;;6.00;4.23;;;15.30;99.90;;;;;;4985438;28;20192;-83
2021/09/26 03:34:55;;;;;;;8.57;4.70;;;15.30;99.90;;;;;;5000584;28;20185;-87
2021/09/26 03:37:20;;;;;;;6.47;5.47;;;15.30;99.90;;;;;;4996143;28;20417;-89
2021/09/26 03:39:46;;;;;;;6.30;5.27;;;15.30;99.90;;;;;;4995985;28;20181;-87
2021/09/26 03:42:11;;;;;;;7.17;4.57;;;15.30;99.90;;;;;;4995767;28;20174;-82
2021/09/26 03:44:37;;;;;;;6.37;4.67;;;15.30;99.90;;;;;;4995819;28;20185;-84
2021/09/26 03:47:03;;;;;;;6.47;5.83;;;15.30;99.90;;;;;;4995300;28;20646;-84
2021/09/26 03:49:29;;;;;;;9.83;5.43;;;15.30;99.90;;;;;;4995439;28;20799;-87
2021/09/26 03:51:55;;;;;;;8.67;5.33;;;15.30;99.90;;;;;;4995462;28;20457;-84
2021/09/26 03:54:21;;;;;;;7.37;5.73;;;15.30;99.90;;;;;;4978184;28;20177;-85
2021/09/26 03:56:48;;;;;;;6.23;5.53;;;15.40;99.90;;;;;;4978337;28;20424;-83
2021/09/26 03:59:15;;;;;;;7.60;5.57;;;15.30;99.90;;;;;;4995865;28;20181;-84
2021/09/26 04:01:41;;;;;;;7.23;6.03;;;15.40;99.90;;;;;;4995404;28;20952;-88
2021/09/26 04:04:08;;;;;;;6.70;5.60;;;15.40;99.90;;;;;;4995735;28;20452;-87
2021/09/26 04:06:33;;;;;;;9.33;6.07;;;15.40;99.90;;;;;;4995365;28;20169;-83
2021/09/26 04:08:59;;;;;;;10.43;7.27;;;15.40;99.90;;;;;;4995038;28;20511;-83
2021/09/26 04:11:25;;;;;;;9.70;7.00;;;15.50;99.90;;;;;;4995015;28;20203;-82
2021/09/26 04:13:50;;;;;;;8.37;6.73;;;15.50;99.90;;;;;;4995042;28;20200;-82
2021/09/26 04:16:16;;;;;;;7.87;6.90;;;15.50;99.90;;;;;;4994602;28;20511;-82
2021/09/26 04:18:41;;;;;;;9.37;7.77;;;15.50;99.90;;;;;;4994826;28;20185;-82
2021/09/26 04:21:08;;;;;;;7.10;6.40;;;15.50;99.90;;;;;;4994434;28;20205;-82
2021/09/26 04:23:34;;;;;;;8.80;8.00;;;15.40;99.90;;;;;;4994829;28;20167;-83
2021/09/26 04:26:02;;;;;;;11.30;9.53;;;15.50;99.90;;;;;;4994580;28;20527;-83
2021/09/26 04:28:28;;;;;;;10.87;9.77;;;15.50;99.90;;;;;;4994676;28;20643;-83
2021/09/26 04:30:57;;;;;;;13.00;9.20;;;15.60;99.90;;;;;;4994696;28;20512;-82
2021/09/26 04:33:22;;;;;;;13.40;9.30;;;15.60;99.90;;;;;;4976893;28;20240;-83
2021/09/26 04:35:51;;;;;;;11.17;8.67;;;15.70;99.90;;;;;;4977096;28;20520;-81
2021/09/26 04:38:16;;;;;;;11.10;9.80;;;15.60;99.90;;;;;;4994705;28;20251;-82
2021/09/26 04:40:45;;;;;;;10.97;9.93;;;15.60;99.90;;;;;;4994511;28;20417;-81
2021/09/26 04:43:11;;;;;;;12.20;10.50;;;15.70;99.90;;;;;;4994389;28;20191;-81
2021/09/26 04:45:36;;;;;;;10.27;9.10;;;15.70;99.90;;;;;;4994451;28;20418;-80
2021/09/26 04:48:04;;;;;;;12.10;10.80;;;15.60;99.90;;;;;;4993889;28;20251;-81
2021/09/26 04:50:30;;;;;;;10.80;9.70;;;15.70;99.90;;;;;;4977045;28;20263;-82
2021/09/26 04:52:55;;;;;;;11.53;10.30;;;15.60;99.90;;;;;;4976951;28;20575;-81
2021/09/26 04:55:24;;;;;;;11.63;10.53;;;15.60;99.90;;;;;;4994159;28;20511;-82
2021/09/26 04:57:51;;;;;;;10.70;9.43;;;15.60;99.90;;;;;;4994211;28;20177;-81
2021/09/26 05:00:20;;;;;;;13.23;10.10;;;15.60;99.90;;;;;;4976748;28;20460;-82
2021/09/26 05:02:45;;;;;;;13.03;11.63;;;15.60;99.90;;;;;;4993866;28;20425;-82
2021/09/26 05:05:11;;;;;;;16.20;13.13;;;15.60;99.90;;;;;;4994066;28;20530;-81
2021/09/26 05:07:37;;;;;;;10.40;9.40;;;15.60;99.90;;;;;;4976485;28;20740;-81
2021/09/26 05:10:04;;;;;;;14.30;12.10;;;15.60;99.90;;;;;;4994030;28;20589;-81
2021/09/26 05:12:32;;;;;;;11.93;10.50;;;15.60;99.90;;;;;;4993858;28;20417;-84
2021/09/26 05:15:04;;;;;;;13.03;11.77;;;15.60;99.90;;;;;;4993990;28;20941;-83
2021/09/26 05:17:34;;;;;;;11.17;10.07;;;15.70;99.90;;;;;;4993602;28;20500;-84
2021/09/26 05:20:00;;;;;;;14.03;10.00;;;15.70;99.90;;;;;;4993874;28;20418;-82
2021/09/26 05:22:27;;;;;;;12.63;11.43;;;15.70;99.90;;;;;;4993837;28;20789;-82
2021/09/26 05:24:52;;;;;;;12.00;10.90;;;15.70;99.90;;;;;;4993766;28;20423;-81
2021/09/26 05:27:18;;;;;;;12.80;9.47;;;15.70;99.90;;;;;;4993520;28;20567;-82
2021/09/26 05:29:53;;;;;;;11.13;10.03;;;15.70;99.90;;;;;;4993828;28;20169;-84
2021/09/26 05:32:19;;;;;;;12.80;11.50;;;15.70;99.90;;;;;;4975103;28;20430;-83
2021/09/26 05:34:44;;;;;;;12.37;11.17;;;15.70;99.90;;;;;;4993598;28;20490;-82
2021/09/26 05:37:13;;;;;;;12.30;11.03;;;15.70;99.90;;;;;;4993692;28;20577;-82
2021/09/26 05:39:45;;;;;;;12.30;11.10;;;15.70;99.90;;;;;;4993674;28;20172;-80
2021/09/26 05:42:11;;;;;;;12.57;11.27;;;15.70;99.90;;;;;;4977006;28;20437;-80
2021/09/26 05:44:37;;;;;;;13.50;11.00;;;15.80;99.90;;;;;;4994247;28;20416;-81
2021/09/26 05:47:07;;;;;;;10.63;9.63;;;15.80;99.90;;;;;;4976295;28;20692;-81
2021/09/26 05:49:38;;;;;;;13.00;11.80;;;15.80;99.90;;;;;;4993831;28;20448;-81
2021/09/26 05:52:08;;;;;;;12.47;10.43;;;15.80;99.90;;;;;;4993495;28;20555;-82
2021/09/26 05:54:35;;;;;;;10.73;9.73;;;15.90;99.90;;;;;;4993700;28;20910;-80
2021/09/26 05:57:01;;;;;;;13.10;11.73;;;15.90;99.90;;;;;;4993514;28;20414;-81
2021/09/26 05:59:27;;;;;;;12.47;11.27;;;16.00;99.90;;;;;;4993506;28;20886;-82
2021/09/26 06:01:52;;;;;;;12.77;11.57;;;16.00;99.90;;;;;;4992993;28;21002;-82
2021/09/26 06:04:18;;;;;;;12.50;11.30;;;15.90;99.90;;;;;;4993348;28;20193;-83
2021/09/26 06:06:43;;;;;;;11.80;10.57;;;15.90;99.90;;;;;;4992831;28;20181;-82
2021/09/26 06:09:09;;;;;;;12.20;11.10;;;15.90;99.90;;;;;;4993039;28;20748;-82
2021/09/26 06:11:34;;;;;;;13.10;11.70;;;15.90;99.90;;;;;;4993152;28;20169;-84
2021/09/26 06:14:00;;;;;;;21.10;11.80;;;15.90;99.90;;;;;;4990922;28;20204;-89
2021/09/26 06:16:26;;;;;;;13.97;12.23;;;16.00;99.90;;;;;;4972922;28;20646;-88
2021/09/26 06:18:51;;;;;;;14.10;12.90;;;16.10;99.90;;;;;;4992858;28;20186;-83
2021/09/26 06:21:17;;;;;;;13.33;11.63;;;16.10;99.90;;;;;;4992450;28;20702;-82
2021/09/26 06:23:43;;;;;;;14.87;12.20;;;16.30;99.90;;;;;;4991905;28;20174;-83
2021/09/26 06:26:08;;;;;;;13.43;12.10;;;16.60;99.90;;;;;;4991736;28;20257;-82
2021/09/26 06:28:34;;;;;;;11.67;10.67;;;17.10;99.90;;;;;;4975026;28;20244;-82
2021/09/26 06:30:59;;;;;;;11.80;10.13;;;19.00;99.90;;;;;;4992693;28;20206;-83
2021/09/26 06:33:26;;;;;;;10.20;7.50;;;20.90;99.90;;;;;;4993130;28;20200;-83
2021/09/26 06:35:52;;;;;;;9.00;8.10;;;22.30;99.90;;;;;;4975644;28;20242;-83
2021/09/26 06:38:18;;;;;;;7.50;6.90;;;23.00;99.90;;;;;;4975517;28;20920;-82
2021/09/26 06:40:43;;;;;;;6.87;6.27;;;23.40;99.90;;;;;;4992003;28;20417;-83
2021/09/26 06:43:09;;;;;;;9.10;6.83;;;23.50;99.90;;;;;;4975617;28;20212;-83
2021/09/26 06:45:35;;;;;;;9.80;6.70;;;24.00;99.90;;;;;;4996835;28;20170;-82
2021/09/26 06:48:00;;;;;;;8.00;6.93;;;23.70;99.90;;;;;;4996211;28;20461;-82
2021/09/26 06:50:27;;;;;;;8.33;6.83;;;22.40;99.90;;;;;;4996578;28;20580;-82
2021/09/26 06:52:53;;;;;;;7.60;6.90;;;22.90;99.90;;;;;;4996568;28;20167;-82
2021/09/26 06:55:19;;;;;;;7.57;6.87;;;23.80;99.90;;;;;;4996518;28;21192;-82
2021/09/26 06:57:44;;;;;;;6.67;6.00;;;24.00;99.90;;;;;;4996355;28;20183;-83
2021/09/26 07:00:10;;;;;;;6.30;5.67;;;24.20;99.90;;;;;;4996400;28;20210;-82
2021/09/26 07:02:36;;;;;;;7.13;6.53;;;24.80;99.90;;;;;;4996266;28;20199;-83
2021/09/26 07:05:02;;;;;;;6.07;5.50;;;25.00;99.90;;;;;;4996321;28;20461;-82
2021/09/26 07:07:28;;;;;;;6.50;5.90;;;25.40;99.90;;;;;;4996291;28;20660;-82
2021/09/26 07:09:53;;;;;;;7.20;6.40;;;25.40;99.90;;;;;;4996222;28;20509;-83
2021/09/26 07:12:20;;;;;;;6.17;5.67;;;25.80;99.90;;;;;;4978793;28;20207;-82
2021/09/26 07:14:46;;;;;;;6.53;5.90;;;25.90;99.90;;;;;;4995574;28;20600;-82
2021/09/26 07:17:12;;;;;;;6.00;5.40;;;25.10;99.90;;;;;;4995828;28;20431;-82
2021/09/26 07:19:38;;;;;;;6.80;6.10;;;25.90;99.90;;;;;;4996130;28;20198;-84
2021/09/26 07:22:04;;;;;;;7.90;5.00;;;24.90;99.90;;;;;;4995992;28;20450;-85
2021/09/26 07:24:30;;;;;;;5.50;4.73;;;25.60;99.90;;;;;;4996000;28;20419;-83
2021/09/26 07:26:56;;;;;;;6.73;6.17;;;25.70;99.90;;;;;;4995650;28;20458;-82
2021/09/26 07:29:22;;;;;;;6.23;5.73;;;25.00;99.90;;;;;;4978339;28;20536;-81
2021/09/26 07:31:47;;;;;;;6.27;4.73;;;26.10;99.90;;;;;;4995042;28;20254;-85
2021/09/26 07:34:13;;;;;;;6.00;5.40;;;26.20;99.90;;;;;;4978277;28;20184;-83
2021/09/26 07:36:39;;;;;;;5.67;5.13;;;26.00;99.90;;;;;;4995766;28;20184;-83
2021/09/26 07:39:05;;;;;;;5.40;4.07;;;26.90;99.90;;;;;;4995631;28;20227;-83
2021/09/26 07:41:30;;;;;;;6.13;5.63;;;27.20;99.90;;;;;;4995637;28;20167;-83
2021/09/26 07:43:56;;;;;;;5.53;5.03;;;26.00;99.90;;;;;;4995644;28;20442;-83
2021/09/26 07:46:22;;;;;;;5.20;4.67;;;26.90;99.90;;;;;;4995215;28;20262;-82
2021/09/26 07:48:48;;;;;;;6.73;5.43;;;25.70;99.90;;;;;;4995511;28;20210;-86
2021/09/26 07:51:14;;;;;;;5.50;5.00;;;26.70;99.90;;;;;;4995463;28;20168;-84
2021/09/26 07:53:39;;;;;;;6.73;4.70;;;28.00;99.90;;;;;;4995454;28;20790;-82
2021/09/26 07:56:08;;;;;;;5.53;4.93;;;27.70;99.90;;;;;;4993638;28;20183;-83
2021/09/26 07:58:34;;;;;;;5.20;4.90;;;27.10;99.90;;;;;;4995501;28;20258;-84
2021/09/26 08:01:01;;;;;;;5.50;4.80;;;26.70;99.90;;;;;;4994994;28;20429;-83
2021/09/26 08:03:27;;;;;;;5.17;4.70;;;27.70;99.90;;;;;;4978213;28;20431;-88
2021/09/26 08:05:54;;;;;;;4.30;3.90;;;27.60;99.80;;;;;;4977735;28;20471;-85
2021/09/26 08:08:23;;;;;;;5.70;5.20;;;27.20;99.90;;;;;;4977594;28;20999;-84
2021/09/26 08:10:49;;;;;;;6.90;4.70;;;27.40;99.90;;;;;;4995075;28;20426;-84
2021/09/26 08:13:15;;;;;;;4.63;4.23;;;27.20;99.90;;;;;;4977832;28;20526;-85
2021/09/26 08:15:41;;;;;;;4.90;4.40;;;27.20;99.90;;;;;;4994693;28;20959;-83
2021/09/26 08:18:06;;;;;;;5.07;3.93;;;27.30;99.90;;;;;;4977569;28;20433;-82
2021/09/26 08:20:32;;;;;;;4.70;4.30;;;27.60;99.90;;;;;;4995036;28;20175;-83
2021/09/26 08:22:58;;;;;;;4.93;4.50;;;28.50;98.50;;;;;;4995059;28;20633;-87
2021/09/26 08:25:23;;;;;;;4.80;4.40;;;27.60;99.10;;;;;;4994661;28;20215;-82
2021/09/26 08:27:50;;;;;;;5.40;4.90;;;27.60;99.90;;;;;;4977297;28;20549;-83
2021/09/26 08:30:18;;;;;;;5.53;4.17;;;27.10;99.90;;;;;;4994972;28;20170;-83
2021/09/26 08:32:43;;;;;;;5.23;4.73;;;27.10;99.90;;;;;;4977259;28;20544;-84
2021/09/26 08:35:13;;;;;;;4.77;4.37;;;27.40;99.90;;;;;;4994755;28;20506;-83
2021/09/26 08:37:39;;;;;;;4.10;3.70;;;28.20;98.30;;;;;;4994547;28;20184;-82
2021/09/26 08:40:05;;;;;;;6.03;5.53;;;29.10;97.60;;;;;;4977364;28;20411;-83
2021/09/26 08:42:33;;;;;;;4.93;4.43;;;29.60;98.60;;;;;;4994670;28;20631;-82
2021/09/26 08:44:58;;;;;;;4.27;3.87;;;28.80;95.70;;;;;;4994398;28;20434;-85
2021/09/26 08:47:27;;;;;;;4.70;4.30;;;29.00;96.00;;;;;;4994289;28;20455;-82
2021/09/26 08:49:53;;;;;;;4.97;4.47;;;27.90;97.60;;;;;;4994708;28;20315;-83
2021/09/26 08:52:19;;;;;;;4.37;3.97;;;28.60;96.90;;;;;;4994456;28;20518;-83
2021/09/26 08:54:44;;;;;;;4.07;3.47;;;29.80;93.80;;;;;;4995021;28;20482;-83
2021/09/26 08:57:13;;;;;;;4.60;3.93;;;30.20;95.80;;;;;;4977227;28;20185;-88
2021/09/26 08:59:39;;;;;;;4.00;3.70;;;28.00;98.80;;;;;;4975316;28;20177;-84
2021/09/26 09:02:04;;;;;;;3.90;3.50;;;29.70;97.70;;;;;;4974644;28;20503;-91
2021/09/26 09:04:48;;;;;;;4.57;4.10;;;30.10;93.50;;;;;;4975022;28;20172;-85
2021/09/26 09:07:13;;;;;;;4.57;4.20;;;29.30;95.60;;;;;;4974906;28;20173;-86
2021/09/26 09:09:50;;;;;;;4.47;3.93;;;28.80;95.00;;;;;;4973339;28;20837;-85
2021/09/26 09:12:17;;;;;;;4.03;3.63;;;29.30;95.10;;;;;;4973195;28;20168;-83
2021/09/26 09:14:54;;;;;;;5.27;4.60;;;29.30;95.40;;;;;;4973311;28;20463;-84
2021/09/26 09:17:33;;;;;;;5.03;4.53;;;29.40;97.50;;;;;;4972761;28;20494;-84
2021/09/26 09:20:16;;;;;;;4.50;4.10;;;29.30;93.40;;;;;;4975061;28;20798;-95
2021/09/26 09:22:44;;;;;;;5.93;4.90;;;29.80;96.80;;;;;;4968051;23;20501;-90
2021/09/26 09:25:46;;;;;;;5.00;4.50;;;29.90;93.70;;;;;;4955022;29;20449;-95
2021/09/26 09:28:28;;;;;;;5.23;4.10;;;29.10;94.20;;;;;;4936846;29;20467;-92
2021/09/26 09:30:57;;;;;;;5.77;4.90;;;29.30;94.60;;;;;;4946255;28;20431;-91
2021/09/26 09:33:33;;;;;;;5.30;4.53;;;29.50;94.90;;;;;;4975608;28;20411;-92
2021/09/26 09:35:59;;;;;;;5.17;4.67;;;28.20;97.80;;;;;;4957495;28;20503;-93
2021/09/26 09:38:27;;;;;;;4.50;4.03;;;28.10;98.10;;;;;;4957543;28;20510;-93
2021/09/26 09:40:53;;;;;;;6.13;4.03;;;28.10;96.40;;;;;;4975159;28;20176;-94
2021/09/26 09:43:20;;;;;;;4.30;4.00;;;28.40;98.30;;;;;;4974435;28;20410;-90
2021/09/26 09:45:58;;;;;;;4.37;4.07;;;27.90;99.90;;;;;;4972803;28;20780;-88
2021/09/26 09:48:26;;;;;;;4.60;4.20;;;30.00;97.20;;;;;;4974972;28;20479;-95
2021/09/26 09:51:06;;;;;;;3.60;3.30;;;30.30;95.50;;;;;;4973518;28;20434;-84
2021/09/26 09:53:43;;;;;;;4.73;3.83;;;30.80;92.80;;;;;;4972935;28;20419;-87
2021/09/26 09:56:17;;;;;;;3.73;3.40;;;30.60;92.10;;;;;;4972897;28;20483;-89
2021/09/26 09:58:51;;;;;;;5.37;3.93;;;29.00;94.70;;;;;;4973018;28;20411;-86
2021/09/26 10:01:28;;;;;;;3.77;3.47;;;29.10;98.30;;;;;;4956850;28;20423;-90
2021/09/26 10:04:04;;;;;;;3.80;3.50;;;28.00;98.40;;;;;;4973157;28;20415;-91
2021/09/26 10:06:32;;;;;;;5.07;4.57;;;29.60;95.40;;;;;;4956098;28;20419;-88
2021/09/26 10:09:01;;;;;;;3.77;3.47;;;29.20;94.10;;;;;;4955426;28;20562;-89
2021/09/26 10:11:28;;;;;;;3.50;3.20;;;28.30;98.50;;;;;;4973421;28;21003;-87
2021/09/26 10:13:59;;;;;;;4.90;3.13;;;28.00;99.90;;;;;;4955747;28;20412;-89
2021/09/26 10:16:25;;;;;;;3.57;3.27;;;27.40;99.90;;;;;;4954753;28;20436;-87
2021/09/26 10:18:52;;;;;;;3.37;2.60;;;28.40;99.90;;;;;;4974975;28;20876;-88
2021/09/26 10:21:18;;;;;;;3.90;3.60;;;28.20;99.90;;;;;;4974728;28;20503;-89
2021/09/26 10:23:46;;;;;;;3.50;3.03;;;27.90;99.90;;;;;;4939901;29;20587;-86
2021/09/26 10:26:15;;;;;;;4.43;3.77;;;27.30;99.90;;;;;;4939869;29;20427;-88
2021/09/26 10:28:43;;;;;;;6.17;3.90;;;27.10;99.90;;;;;;4957179;29;20468;-86
2021/09/26 10:31:11;;;;;;;3.90;3.60;;;27.40;99.90;;;;;;4956655;29;20412;-88
2021/09/26 10:33:37;;;;;;;3.73;2.80;;;28.10;99.90;;;;;;4939983;29;20424;-87
2021/09/26 10:36:06;;;;;;;3.57;3.27;;;28.30;99.90;;;;;;4957353;29;20475;-88
2021/09/26 10:38:32;;;;;;;4.53;3.47;;;27.80;99.90;;;;;;4940184;29;20653;-90
2021/09/26 10:41:04;;;;;;;4.00;3.43;;;27.70;99.90;;;;;;4942151;29;20451;-87
2021/09/26 10:43:30;;;;;;;5.20;3.20;;;27.90;99.90;;;;;;4939866;29;20436;-90
2021/09/26 10:46:19;;;;;;;4.57;3.20;;;26.20;99.90;;;;;;4939443;29;20510;-90
2021/09/26 10:49:04;;;;;;;4.13;3.70;;;27.80;99.90;;;;;;4956833;29;20300;-89
2021/09/26 10:51:45;;;;;;;3.60;3.30;;;27.60;99.90;;;;;;4940404;29;20451;-89
2021/09/26 10:54:23;;;;;;;3.27;3.07;;;28.70;99.90;;;;;;4956990;29;20404;-87
2021/09/26 10:56:50;;;;;;;3.30;3.10;;;27.80;99.90;;;;;;4956678;29;20416;-87
2021/09/26 10:59:16;;;;;;;3.90;2.73;;;28.00;99.90;;;;;;4956445;29;20413;-86
2021/09/26 11:01:41;;;;;;;2.10;1.90;;;27.60;98.70;;;;;;4939232;29;20436;-88
2021/09/26 11:04:36;;;;;;;2.60;2.40;;;28.20;99.90;;;;;;4958439;29;20178;-93
2021/09/26 11:07:18;;;;;;;2.50;2.30;;;27.60;95.90;;;;;;4962731;29;20232;-93
2021/09/26 11:10:03;;;;;;;2.70;2.50;;;25.50;99.90;;;;;;4943454;29;20432;-90
2021/09/26 11:12:50;;;;;;;3.00;2.20;;;24.90;99.90;;;;;;4957961;29;20424;-84
2021/09/26 11:15:19;;;;;;;4.03;2.77;;;25.50;99.90;;;;;;4957743;29;20417;-94
2021/09/26 11:17:49;;;;;;;3.10;2.20;;;25.40;99.90;;;;;;4957276;29;20417;-89
2021/09/26 11:20:30;;;;;;;3.20;2.90;;;25.10;99.90;;;;;;4956978;29;20424;-90
2021/09/26 11:23:08;;;;;;;2.90;2.57;;;25.20;99.90;;;;;;4971229;28;20467;-91
2021/09/26 11:26:16;;;;;;;2.97;2.73;;;25.30;99.90;;;;;;4977343;28;20743;-93
2021/09/26 11:28:41;;;;;;;5.17;4.27;;;25.30;99.90;;;;;;4990947;28;20470;-91
2021/09/26 11:31:09;;;;;;;3.33;2.87;;;24.70;99.90;;;;;;4976325;28;20467;-93
2021/09/26 11:33:58;;;;;;;3.30;3.00;;;24.20;99.90;;;;;;4984937;28;20195;-93
2021/09/26 11:36:29;;;;;;;3.10;2.90;;;24.50;99.90;;;;;;4982681;28;20423;-94
2021/09/26 11:38:56;;;;;;;3.10;2.90;;;24.50;99.90;;;;;;4984210;28;20983;-93
2021/09/26 11:41:40;;;;;;;4.50;3.43;;;24.60;99.90;;;;;;4985104;28;20411;-95
2021/09/26 11:44:07;;;;;;;2.67;2.47;;;24.80;99.90;;;;;;4979988;28;20431;-95
2021/09/26 11:46:34;;;;;;;6.17;3.63;;;24.80;99.90;;;;;;4979662;28;20483;-94
2021/09/26 11:49:03;;;;;;;3.20;2.90;;;25.10;99.90;;;;;;4945531;29;21069;-93
2021/09/26 11:51:29;;;;;;;4.17;3.00;;;24.80;99.90;;;;;;4942463;29;20465;-95
2021/09/26 11:53:55;;;;;;;3.87;3.17;;;24.80;99.90;;;;;;4958135;29;20421;-90
2021/09/26 11:56:31;;;;;;;3.00;2.70;;;25.10;99.90;;;;;;4957081;29;20416;-91
2021/09/26 11:59:00;;;;;;;3.97;3.10;;;25.40;99.90;;;;;;4971610;28;20412;-90
2021/09/26 12:01:35;;;;;;;4.00;3.13;;;25.70;99.90;;;;;;4976407;28;20411;-89
2021/09/26 12:04:04;;;;;;;5.30;3.10;;;26.50;99.90;;;;;;4984435;28;20406;-93
2021/09/26 12:06:30;;;;;;;2.97;2.70;;;26.10;99.90;;;;;;4981821;28;20427;-94
2021/09/26 12:08:55;;;;;;;4.80;3.27;;;26.80;99.90;;;;;;4977576;28;20921;-92
2021/09/26 12:11:21;;;;;;;3.77;3.27;;;26.80;99.90;;;;;;4980532;28;20176;-91
2021/09/26 12:13:53;;;;;;;3.73;3.30;;;27.10;99.90;;;;;;4975223;28;20220;-91
2021/09/26 12:16:20;;;;;;;5.50;3.17;;;27.20;99.90;;;;;;4975223;28;20172;-90
2021/09/26 12:18:55;;;;;;;3.30;2.83;;;28.30;99.90;;;;;;4977086;28;20420;-92
2021/09/26 12:21:25;;;;;;;2.87;2.20;;;28.10;98.30;;;;;;4977021;28;21113;-90
2021/09/26 12:23:52;;;;;;;3.53;3.00;;;28.50;97.50;;;;;;4980019;28;20428;-92
2021/09/26 12:26:37;;;;;;;4.50;2.97;;;26.70;99.90;;;;;;4964908;28;20849;-92
2021/09/26 12:29:29;;;;;;;3.97;3.20;;;25.30;99.90;;;;;;4944995;29;20968;-94
2021/09/26 12:32:10;;;;;;;2.87;2.67;;;24.80;99.90;;;;;;4939715;29;20488;-92
2021/09/26 12:34:45;;;;;;;4.10;3.80;;;24.50;99.90;;;;;;4956028;29;20780;-93
2021/09/26 12:37:21;;;;;;;5.50;4.50;;;24.40;99.90;;;;;;4957992;29;20455;-93
2021/09/26 12:39:51;;;;;;;4.18;3.78;;;24.30;99.90;;;;;;4943397;28;20489;-90
2021/09/26 12:42:21;;;;;;;6.00;3.83;;;24.30;99.90;;;;;;4976490;28;20234;-93
2021/09/26 12:44:47;;;;;;;4.43;3.40;;;24.40;99.90;;;;;;4977277;28;20515;-92
2021/09/26 12:47:19;;;;;;;4.47;4.07;;;24.00;99.90;;;;;;4976142;28;20463;-92
2021/09/26 12:49:48;;;;;;;3.93;3.60;;;23.90;99.90;;;;;;4975815;28;20285;-92
2021/09/26 12:52:17;;;;;;;4.67;4.27;;;23.80;99.90;;;;;;4975888;28;20434;-92
2021/09/26 12:54:47;;;;;;;4.10;3.70;;;23.70;99.90;;;;;;4974721;28;20426;-89